sensor_id;sensor_type;location;lat;lon;timestamp;pressure;altitude;pressure_sealevel;temperature;humidity
57990;BME280;58373;51.824;5.564;2022-10-16T00:01:14;100918.94;;;11.46;94.34
57990;BME280;58373;51.824;5.564;2022-10-16T00:03:41;100927.13;;;11.41;94.81
57990;BME280;58373;51.824;5.564;2022-10-16T00:06:08;100929.31;;;11.46;95.24
57990;BME280;58373;51.824;5.564;2022-10-16T00:08:34;100927.97;;;11.42;95.06
57990;BME280;58373;51.824;5.564;2022-10-16T00:13:29;100922.31;;;11.37;95.23
57990;BME280;58373;51.824;5.564;2022-10-16T00:15:56;100930.66;;;11.40;95.68
57990;BME280;58373;51.824;5.564;2022-10-16T00:18:21;100919.72;;;11.37;95.46
57990;BME280;58373;51.824;5.564;2022-10-16T00:20:47;100916.41;;;11.35;95.55
57990;BME280;58373;51.824;5.564;2022-10-16T00:23:12;100925.38;;;11.42;95.54
57990;BME280;58373;51.824;5.564;2022-10-16T00:25:38;100920.41;;;11.39;95.72
57990;BME280;58373;51.824;5.564;2022-10-16T00:28:03;100923.81;;;11.39;95.99
57990;BME280;58373;51.824;5.564;2022-10-16T00:30:28;100926.56;;;11.38;95.56
57990;BME280;58373;51.824;5.564;2022-10-16T00:32:55;100923.28;;;11.36;96.14
57990;BME280;58373;51.824;5.564;2022-10-16T00:35:21;100931.16;;;11.34;96.18
57990;BME280;58373;51.824;5.564;2022-10-16T00:37:46;100919.16;;;11.33;96.41
57990;BME280;58373;51.824;5.564;2022-10-16T00:40:12;100930.34;;;11.34;96.25
57990;BME280;58373;51.824;5.564;2022-10-16T00:42:37;100921.88;;;11.32;96.41
57990;BME280;58373;51.824;5.564;2022-10-16T00:45:03;100925.16;;;11.34;95.91
57990;BME280;58373;51.824;5.564;2022-10-16T00:47:32;100923.28;;;11.36;96.91
57990;BME280;58373;51.824;5.564;2022-10-16T00:50:30;100914.53;;;11.37;97.19
57990;BME280;58373;51.824;5.564;2022-10-16T00:52:57;100921.38;;;11.38;97.13
57990;BME280;58373;51.824;5.564;2022-10-16T00:55:24;100928.19;;;11.39;96.61
57990;BME280;58373;51.824;5.564;2022-10-16T00:57:51;100915.59;;;11.34;96.26
57990;BME280;58373;51.824;5.564;2022-10-16T01:00:21;100925.22;;;11.43;96.88
57990;BME280;58373;51.824;5.564;2022-10-16T01:02:59;100921.66;;;11.44;97.34
57990;BME280;58373;51.824;5.564;2022-10-16T01:05:37;100927.97;;;11.42;97.19
57990;BME280;58373;51.824;5.564;2022-10-16T01:08:13;100932.63;;;11.48;96.66
57990;BME280;58373;51.824;5.564;2022-10-16T01:10:59;100918.13;;;11.46;97.87
57990;BME280;58373;51.824;5.564;2022-10-16T01:13:41;100923.38;;;11.55;97.28
57990;BME280;58373;51.824;5.564;2022-10-16T01:16:34;100923.09;;;11.58;97.26
57990;BME280;58373;51.824;5.564;2022-10-16T01:19:14;100920.63;;;11.57;97.46
57990;BME280;58373;51.824;5.564;2022-10-16T01:21:44;100919.31;;;11.62;97.37
57990;BME280;58373;51.824;5.564;2022-10-16T01:24:27;100915.75;;;11.63;97.89
57990;BME280;58373;51.824;5.564;2022-10-16T01:27:25;100912.31;;;11.63;97.44
57990;BME280;58373;51.824;5.564;2022-10-16T01:32:40;100911.50;;;11.62;98.02
57990;BME280;58373;51.824;5.564;2022-10-16T01:35:47;100922.09;;;11.70;97.02
57990;BME280;58373;51.824;5.564;2022-10-16T01:38:22;100922.09;;;11.70;97.48
57990;BME280;58373;51.824;5.564;2022-10-16T01:40:54;100913.84;;;11.65;97.89
57990;BME280;58373;51.824;5.564;2022-10-16T01:43:33;100925.13;;;11.76;97.75
57990;BME280;58373;51.824;5.564;2022-10-16T01:46:01;100917.13;;;11.67;97.28
57990;BME280;58373;51.824;5.564;2022-10-16T01:48:27;100910.53;;;11.63;97.57
57990;BME280;58373;51.824;5.564;2022-10-16T01:51:03;100917.97;;;11.68;97.66
57990;BME280;58373;51.824;5.564;2022-10-16T01:53:29;100937.53;;;11.72;97.85
57990;BME280;58373;51.824;5.564;2022-10-16T01:55:58;100925.06;;;11.66;97.35
57990;BME280;58373;51.824;5.564;2022-10-16T01:58:25;100921.28;;;11.70;97.78
57990;BME280;58373;51.824;5.564;2022-10-16T02:00:52;100904.41;;;11.64;97.57
57990;BME280;58373;51.824;5.564;2022-10-16T02:03:19;100928.41;;;11.78;97.38
57990;BME280;58373;51.824;5.564;2022-10-16T02:05:49;100920.19;;;11.73;97.63
57990;BME280;58373;51.824;5.564;2022-10-16T02:08:16;100922.78;;;11.73;97.62
57990;BME280;58373;51.824;5.564;2022-10-16T02:10:41;100909.19;;;11.69;97.60
57990;BME280;58373;51.824;5.564;2022-10-16T02:13:17;100912.91;;;11.66;97.81
57990;BME280;58373;51.824;5.564;2022-10-16T02:15:45;100916.88;;;11.70;97.90
57990;BME280;58373;51.824;5.564;2022-10-16T02:18:10;100929.47;;;11.75;97.54
57990;BME280;58373;51.824;5.564;2022-10-16T02:20:52;100931.97;;;11.77;97.87
57990;BME280;58373;51.824;5.564;2022-10-16T02:26:16;100929.88;;;11.70;98.11
57990;BME280;58373;51.824;5.564;2022-10-16T02:28:48;100923.16;;;11.68;97.93
57990;BME280;58373;51.824;5.564;2022-10-16T02:31:23;100927.28;;;11.70;98.57
57990;BME280;58373;51.824;5.564;2022-10-16T02:33:52;100932.47;;;11.70;97.80
57990;BME280;58373;51.824;5.564;2022-10-16T02:36:20;100939.56;;;11.68;98.26
57990;BME280;58373;51.824;5.564;2022-10-16T02:38:46;100937.09;;;11.67;97.69
57990;BME280;58373;51.824;5.564;2022-10-16T02:41:12;100926.13;;;11.63;97.72
57990;BME280;58373;51.824;5.564;2022-10-16T02:43:37;100925.22;;;11.64;97.70
57990;BME280;58373;51.824;5.564;2022-10-16T02:46:03;100928.56;;;11.55;98.40
57990;BME280;58373;51.824;5.564;2022-10-16T02:48:28;100940.09;;;11.62;98.25
57990;BME280;58373;51.824;5.564;2022-10-16T02:50:53;100948.84;;;11.61;98.02
57990;BME280;58373;51.824;5.564;2022-10-16T02:53:19;100947.44;;;11.57;98.48
57990;BME280;58373;51.824;5.564;2022-10-16T02:55:44;100938.97;;;11.55;98.01
57990;BME280;58373;51.824;5.564;2022-10-16T02:58:09;100932.66;;;11.58;98.45
57990;BME280;58373;51.824;5.564;2022-10-16T03:00:34;100923.63;;;11.52;98.78
57990;BME280;58373;51.824;5.564;2022-10-16T03:03:00;100931.84;;;11.57;98.46
57990;BME280;58373;51.824;5.564;2022-10-16T03:05:25;100926.94;;;11.54;98.18
57990;BME280;58373;51.824;5.564;2022-10-16T03:07:51;100921.47;;;11.57;98.32
57990;BME280;58373;51.824;5.564;2022-10-16T03:10:18;100910.63;;;11.52;98.79
57990;BME280;58373;51.824;5.564;2022-10-16T03:12:43;100911.59;;;11.51;98.08
57990;BME280;58373;51.824;5.564;2022-10-16T03:15:08;100924.72;;;11.50;98.29
57990;BME280;58373;51.824;5.564;2022-10-16T03:17:34;100930.72;;;11.50;98.88
57990;BME280;58373;51.824;5.564;2022-10-16T03:19:59;100945.78;;;11.56;98.38
57990;BME280;58373;51.824;5.564;2022-10-16T03:22:25;100939.47;;;11.49;98.56
57990;BME280;58373;51.824;5.564;2022-10-16T03:24:50;100946.06;;;11.53;98.44
57990;BME280;58373;51.824;5.564;2022-10-16T03:27:15;100949.34;;;11.55;98.33
57990;BME280;58373;51.824;5.564;2022-10-16T03:29:41;100945.25;;;11.53;98.47
57990;BME280;58373;51.824;5.564;2022-10-16T03:32:06;100945.50;;;11.50;98.40
57990;BME280;58373;51.824;5.564;2022-10-16T03:34:31;100943.97;;;11.47;98.83
57990;BME280;58373;51.824;5.564;2022-10-16T03:36:57;100947.41;;;11.48;99.14
57990;BME280;58373;51.824;5.564;2022-10-16T03:39:22;100955.06;;;11.49;98.33
57990;BME280;58373;51.824;5.564;2022-10-16T03:41:47;100964.75;;;11.47;98.69
57990;BME280;58373;51.824;5.564;2022-10-16T03:44:13;100976.66;;;11.50;98.96
57990;BME280;58373;51.824;5.564;2022-10-16T03:46:39;100968.28;;;11.46;98.68
57990;BME280;58373;51.824;5.564;2022-10-16T03:49:04;100966.94;;;11.52;98.54
57990;BME280;58373;51.824;5.564;2022-10-16T03:51:30;100956.69;;;11.50;98.16
57990;BME280;58373;51.824;5.564;2022-10-16T03:53:55;100950.38;;;11.43;98.22
57990;BME280;58373;51.824;5.564;2022-10-16T03:56:21;100959.13;;;11.42;98.40
57990;BME280;58373;51.824;5.564;2022-10-16T03:58:46;100976.91;;;11.47;99.08
57990;BME280;58373;51.824;5.564;2022-10-16T04:01:11;100974.19;;;11.48;99.30
57990;BME280;58373;51.824;5.564;2022-10-16T04:03:37;100974.69;;;11.42;98.54
57990;BME280;58373;51.824;5.564;2022-10-16T04:06:02;100984.81;;;11.45;98.97
57990;BME280;58373;51.824;5.564;2022-10-16T04:08:27;100978.81;;;11.44;98.93
57990;BME280;58373;51.824;5.564;2022-10-16T04:10:53;100981.78;;;11.40;98.31
57990;BME280;58373;51.824;5.564;2022-10-16T04:13:18;100991.66;;;11.46;98.73
57990;BME280;58373;51.824;5.564;2022-10-16T04:15:45;100986.47;;;11.46;99.08
57990;BME280;58373;51.824;5.564;2022-10-16T04:18:10;100994.53;;;11.43;98.65
57990;BME280;58373;51.824;5.564;2022-10-16T04:20:36;100994.75;;;11.40;99.22
57990;BME280;58373;51.824;5.564;2022-10-16T04:23:01;100991.22;;;11.41;98.89
57990;BME280;58373;51.824;5.564;2022-10-16T04:25:27;100997.25;;;11.41;98.70
57990;BME280;58373;51.824;5.564;2022-10-16T04:27:53;100999.84;;;11.41;99.32
57990;BME280;58373;51.824;5.564;2022-10-16T04:30:18;100990.78;;;11.36;99.01
57990;BME280;58373;51.824;5.564;2022-10-16T04:32:51;100999.84;;;11.41;99.39
57990;BME280;58373;51.824;5.564;2022-10-16T04:35:17;101006.09;;;11.39;99.34
57990;BME280;58373;51.824;5.564;2022-10-16T04:37:43;101007.75;;;11.40;99.56
57990;BME280;58373;51.824;5.564;2022-10-16T04:40:08;101008.25;;;11.34;99.31
57990;BME280;58373;51.824;5.564;2022-10-16T04:42:34;101004.97;;;11.32;99.61
57990;BME280;58373;51.824;5.564;2022-10-16T04:44:59;101007.44;;;11.33;99.92
57990;BME280;58373;51.824;5.564;2022-10-16T04:47:24;101004.69;;;11.35;99.22
57990;BME280;58373;51.824;5.564;2022-10-16T04:49:50;101005.47;;;11.26;99.46
57990;BME280;58373;51.824;5.564;2022-10-16T04:52:15;101011.50;;;11.26;99.59
57990;BME280;58373;51.824;5.564;2022-10-16T04:54:41;101020.78;;;11.29;99.54
57990;BME280;58373;51.824;5.564;2022-10-16T04:57:06;101019.66;;;11.22;99.93
57990;BME280;58373;51.824;5.564;2022-10-16T04:59:32;101018.81;;;11.21;100.00
57990;BME280;58373;51.824;5.564;2022-10-16T05:01:57;101021.78;;;11.16;99.64
57990;BME280;58373;51.824;5.564;2022-10-16T05:04:22;101014.94;;;11.15;99.41
57990;BME280;58373;51.824;5.564;2022-10-16T05:06:48;101030.97;;;11.21;99.71
57990;BME280;58373;51.824;5.564;2022-10-16T05:09:13;101029.22;;;11.21;100.00
57990;BME280;58373;51.824;5.564;2022-10-16T05:11:38;101038.50;;;11.24;100.00
57990;BME280;58373;51.824;5.564;2022-10-16T05:14:04;101039.00;;;11.17;100.00
57990;BME280;58373;51.824;5.564;2022-10-16T05:16:29;101042.56;;;11.16;100.00
57990;BME280;58373;51.824;5.564;2022-10-16T05:18:56;101056.94;;;11.21;100.00
57990;BME280;58373;51.824;5.564;2022-10-16T05:21:21;101054.03;;;11.14;100.00
57990;BME280;58373;51.824;5.564;2022-10-16T05:23:47;101060.03;;;11.14;100.00
57990;BME280;58373;51.824;5.564;2022-10-16T05:26:12;101069.47;;;11.15;99.97
57990;BME280;58373;51.824;5.564;2022-10-16T05:28:38;101072.28;;;11.12;100.00
57990;BME280;58373;51.824;5.564;2022-10-16T05:31:07;101087.88;;;11.12;100.00
57990;BME280;58373;51.824;5.564;2022-10-16T05:33:33;101082.47;;;11.04;100.00
57990;BME280;58373;51.824;5.564;2022-10-16T05:36:03;101086.97;;;11.02;100.00
57990;BME280;58373;51.824;5.564;2022-10-16T05:38:28;101085.31;;;11.01;100.00
57990;BME280;58373;51.824;5.564;2022-10-16T05:40:54;101106.66;;;11.05;100.00
57990;BME280;58373;51.824;5.564;2022-10-16T05:43:19;101094.44;;;10.96;100.00
57990;BME280;58373;51.824;5.564;2022-10-16T05:45:57;101100.03;;;11.01;100.00
57990;BME280;58373;51.824;5.564;2022-10-16T05:48:23;101114.81;;;11.00;100.00
57990;BME280;58373;51.824;5.564;2022-10-16T05:50:48;101118.34;;;10.99;100.00
57990;BME280;58373;51.824;5.564;2022-10-16T05:53:14;101108.22;;;10.96;100.00
57990;BME280;58373;51.824;5.564;2022-10-16T05:55:39;101116.94;;;10.95;100.00
57990;BME280;58373;51.824;5.564;2022-10-16T05:58:04;101122.84;;;10.97;100.00
57990;BME280;58373;51.824;5.564;2022-10-16T06:00:29;101132.50;;;10.95;100.00
57990;BME280;58373;51.824;5.564;2022-10-16T06:02:55;101135.81;;;10.97;100.00
57990;BME280;58373;51.824;5.564;2022-10-16T06:05:20;101124.28;;;10.90;100.00
57990;BME280;58373;51.824;5.564;2022-10-16T06:07:46;101139.38;;;10.96;100.00
57990;BME280;58373;51.824;5.564;2022-10-16T06:10:11;101134.41;;;10.93;100.00
57990;BME280;58373;51.824;5.564;2022-10-16T06:12:36;101139.09;;;10.99;100.00
57990;BME280;58373;51.824;5.564;2022-10-16T06:15:02;101135.22;;;10.94;100.00
57990;BME280;58373;51.824;5.564;2022-10-16T06:17:27;101128.38;;;10.93;100.00
57990;BME280;58373;51.824;5.564;2022-10-16T06:19:52;101137.47;;;10.98;100.00
57990;BME280;58373;51.824;5.564;2022-10-16T06:22:18;101136.03;;;10.94;100.00
57990;BME280;58373;51.824;5.564;2022-10-16T06:24:43;101149.97;;;10.93;100.00
57990;BME280;58373;51.824;5.564;2022-10-16T06:27:08;101146.44;;;10.94;100.00
57990;BME280;58373;51.824;5.564;2022-10-16T06:29:34;101154.00;;;10.97;100.00
57990;BME280;58373;51.824;5.564;2022-10-16T06:31:59;101153.03;;;10.98;100.00
57990;BME280;58373;51.824;5.564;2022-10-16T06:34:24;101153.03;;;10.98;100.00
57990;BME280;58373;51.824;5.564;2022-10-16T06:36:50;101165.31;;;11.07;100.00
57990;BME280;58373;51.824;5.564;2022-10-16T06:39:15;101171.41;;;11.06;100.00
57990;BME280;58373;51.824;5.564;2022-10-16T06:41:40;101178.84;;;11.11;100.00
57990;BME280;58373;51.824;5.564;2022-10-16T06:44:06;101168.47;;;11.11;100.00
57990;BME280;58373;51.824;5.564;2022-10-16T06:46:33;101170.13;;;11.12;100.00
57990;BME280;58373;51.824;5.564;2022-10-16T06:48:58;101180.28;;;11.15;100.00
57990;BME280;58373;51.824;5.564;2022-10-16T06:51:24;101189.34;;;11.21;100.00
57990;BME280;58373;51.824;5.564;2022-10-16T06:53:52;101196.19;;;11.22;100.00
57990;BME280;58373;51.824;5.564;2022-10-16T06:56:23;101200.22;;;11.26;100.00
57990;BME280;58373;51.824;5.564;2022-10-16T06:58:49;101188.88;;;11.27;100.00
57990;BME280;58373;51.824;5.564;2022-10-16T07:01:16;101196.66;;;11.27;100.00
57990;BME280;58373;51.824;5.564;2022-10-16T07:03:43;101194.88;;;11.27;100.00
57990;BME280;58373;51.824;5.564;2022-10-16T07:06:11;101219.06;;;11.39;100.00
57990;BME280;58373;51.824;5.564;2022-10-16T07:08:38;101212.22;;;11.38;100.00
57990;BME280;58373;51.824;5.564;2022-10-16T07:11:06;101217.88;;;11.43;100.00
57990;BME280;58373;51.824;5.564;2022-10-16T07:13:36;101222.13;;;11.44;100.00
57990;BME280;58373;51.824;5.564;2022-10-16T07:16:13;101225.69;;;11.43;100.00
57990;BME280;58373;51.824;5.564;2022-10-16T07:18:39;101234.75;;;11.49;100.00
57990;BME280;58373;51.824;5.564;2022-10-16T07:21:06;101236.41;;;11.50;100.00
57990;BME280;58373;51.824;5.564;2022-10-16T07:23:31;101251.16;;;11.49;100.00
57990;BME280;58373;51.824;5.564;2022-10-16T07:25:57;101261.56;;;11.49;100.00
57990;BME280;58373;51.824;5.564;2022-10-16T07:28:22;101259.19;;;11.46;100.00
57990;BME280;58373;51.824;5.564;2022-10-16T07:30:48;101279.38;;;11.54;100.00
57990;BME280;58373;51.824;5.564;2022-10-16T07:33:13;101264.63;;;11.54;100.00
57990;BME280;58373;51.824;5.564;2022-10-16T07:35:53;101271.22;;;11.58;100.00
57990;BME280;58373;51.824;5.564;2022-10-16T07:38:20;101274.28;;;11.63;100.00
57990;BME280;58373;51.824;5.564;2022-10-16T07:40:46;101277.94;;;11.72;100.00
57990;BME280;58373;51.824;5.564;2022-10-16T07:43:11;101269.44;;;11.70;100.00
57990;BME280;58373;51.824;5.564;2022-10-16T07:45:37;101288.66;;;11.79;100.00
57990;BME280;58373;51.824;5.564;2022-10-16T07:48:03;101266.94;;;11.68;100.00
57990;BME280;58373;51.824;5.564;2022-10-16T07:50:29;101284.66;;;11.86;100.00
57990;BME280;58373;51.824;5.564;2022-10-16T07:52:54;101297.88;;;11.94;100.00
57990;BME280;58373;51.824;5.564;2022-10-16T07:55:19;101284.16;;;11.92;100.00
57990;BME280;58373;51.824;5.564;2022-10-16T07:57:44;101285.34;;;11.99;100.00
57990;BME280;58373;51.824;5.564;2022-10-16T08:00:10;101278.25;;;12.01;100.00
57990;BME280;58373;51.824;5.564;2022-10-16T08:02:39;101284.59;;;12.08;100.00
57990;BME280;58373;51.824;5.564;2022-10-16T08:05:05;101296.88;;;12.17;100.00
57990;BME280;58373;51.824;5.564;2022-10-16T08:07:31;101302.25;;;12.26;100.00
57990;BME280;58373;51.824;5.564;2022-10-16T08:09:56;101302.13;;;12.27;100.00
57990;BME280;58373;51.824;5.564;2022-10-16T08:12:23;101303.41;;;12.33;100.00
57990;BME280;58373;51.824;5.564;2022-10-16T08:14:48;101302.66;;;12.42;100.00
57990;BME280;58373;51.824;5.564;2022-10-16T08:17:14;101322.75;;;12.51;100.00
57990;BME280;58373;51.824;5.564;2022-10-16T08:19:44;101321.78;;;12.52;100.00
57990;BME280;58373;51.824;5.564;2022-10-16T08:22:09;101328.13;;;12.59;100.00
57990;BME280;58373;51.824;5.564;2022-10-16T08:24:35;101315.13;;;12.59;100.00
57990;BME280;58373;51.824;5.564;2022-10-16T08:27:02;101334.09;;;12.71;100.00
57990;BME280;58373;51.824;5.564;2022-10-16T08:29:27;101325.09;;;12.75;100.00
57990;BME280;58373;51.824;5.564;2022-10-16T08:31:53;101332.84;;;12.86;99.74
57990;BME280;58373;51.824;5.564;2022-10-16T08:34:18;101349.00;;;12.90;99.31
57990;BME280;58373;51.824;5.564;2022-10-16T08:36:44;101342.16;;;12.89;99.40
57990;BME280;58373;51.824;5.564;2022-10-16T08:39:09;101352.88;;;12.95;99.09
57990;BME280;58373;51.824;5.564;2022-10-16T08:44:30;101368.06;;;13.11;98.25
57990;BME280;58373;51.824;5.564;2022-10-16T08:47:26;101367.53;;;13.17;98.02
57990;BME280;58373;51.824;5.564;2022-10-16T08:50:00;101370.38;;;13.25;98.94
57990;BME280;58373;51.824;5.564;2022-10-16T08:52:33;101375.06;;;13.32;97.10
57990;BME280;58373;51.824;5.564;2022-10-16T08:55:01;101376.13;;;13.29;96.61
57990;BME280;58373;51.824;5.564;2022-10-16T08:57:27;101385.66;;;13.40;96.62
57990;BME280;58373;51.824;5.564;2022-10-16T08:59:52;101396.28;;;13.48;96.47
57990;BME280;58373;51.824;5.564;2022-10-16T09:02:35;101381.06;;;13.53;96.67
57990;BME280;58373;51.824;5.564;2022-10-16T09:05:17;101385.06;;;13.57;95.71
57990;BME280;58373;51.824;5.564;2022-10-16T09:08:08;101404.03;;;13.69;96.32
57990;BME280;58373;51.824;5.564;2022-10-16T09:10:38;101402.69;;;13.74;95.77
57990;BME280;58373;51.824;5.564;2022-10-16T09:13:12;101403.41;;;13.76;94.83
57990;BME280;58373;51.824;5.564;2022-10-16T09:21:31;101410.16;;;13.98;96.02
57990;BME280;58373;51.824;5.564;2022-10-16T09:24:09;101409.63;;;14.04;94.20
57990;BME280;58373;51.824;5.564;2022-10-16T09:26:37;101418.19;;;14.16;94.41
57990;BME280;58373;51.824;5.564;2022-10-16T09:29:02;101405.41;;;14.13;93.93
57990;BME280;58373;51.824;5.564;2022-10-16T09:31:28;101406.66;;;14.19;93.21
57990;BME280;58373;51.824;5.564;2022-10-16T09:33:58;101411.63;;;14.31;92.74
57990;BME280;58373;51.824;5.564;2022-10-16T09:36:27;101414.41;;;14.40;92.02
57990;BME280;58373;51.824;5.564;2022-10-16T09:39:07;101423.72;;;14.42;92.08
57990;BME280;58373;51.824;5.564;2022-10-16T09:41:38;101426.66;;;14.49;91.93
57990;BME280;58373;51.824;5.564;2022-10-16T09:44:13;101435.88;;;14.53;91.10
57990;BME280;58373;51.824;5.564;2022-10-16T09:46:41;101426.81;;;14.57;90.02
57990;BME280;58373;51.824;5.564;2022-10-16T09:49:22;101430.94;;;14.69;90.70
57990;BME280;58373;51.824;5.564;2022-10-16T09:51:49;101428.19;;;14.71;89.98
57990;BME280;58373;51.824;5.564;2022-10-16T09:54:20;101435.31;;;14.78;89.91
57990;BME280;58373;51.824;5.564;2022-10-16T09:56:45;101430.09;;;14.78;88.87
57990;BME280;58373;51.824;5.564;2022-10-16T09:59:15;101438.34;;;14.93;89.26
57990;BME280;58373;51.824;5.564;2022-10-16T10:01:45;101431.75;;;14.89;86.72
57990;BME280;58373;51.824;5.564;2022-10-16T10:04:11;101433.69;;;14.97;87.86
57990;BME280;58373;51.824;5.564;2022-10-16T10:06:41;101444.66;;;15.00;88.01
57990;BME280;58373;51.824;5.564;2022-10-16T10:09:23;101443.03;;;15.09;87.65
57990;BME280;58373;51.824;5.564;2022-10-16T10:11:56;101455.38;;;15.07;86.80
57990;BME280;58373;51.824;5.564;2022-10-16T10:16:50;101439.28;;;15.21;86.71
57990;BME280;58373;51.824;5.564;2022-10-16T10:19:18;101447.53;;;15.26;83.59
57990;BME280;58373;51.824;5.564;2022-10-16T10:21:44;101444.06;;;15.35;87.32
57990;BME280;58373;51.824;5.564;2022-10-16T10:24:13;101440.22;;;15.39;85.04
57990;BME280;58373;51.824;5.564;2022-10-16T10:26:44;101446.81;;;15.44;83.16
57990;BME280;58373;51.824;5.564;2022-10-16T10:40:15;101464.50;;;15.59;81.92
57990;BME280;58373;51.824;5.564;2022-10-16T10:42:54;101466.84;;;15.53;80.50
57990;BME280;58373;51.824;5.564;2022-10-16T10:45:27;101480.63;;;15.64;79.52
57990;BME280;58373;51.824;5.564;2022-10-16T10:48:03;101470.13;;;15.74;81.14
57990;BME280;58373;51.824;5.564;2022-10-16T10:53:05;101483.75;;;15.78;76.85
57990;BME280;58373;51.824;5.564;2022-10-16T10:58:10;101486.09;;;15.71;77.28
57990;BME280;58373;51.824;5.564;2022-10-16T11:01:01;101491.06;;;15.74;78.84
57990;BME280;58373;51.824;5.564;2022-10-16T11:06:23;101494.41;;;15.94;78.36
57990;BME280;58373;51.824;5.564;2022-10-16T11:11:43;101488.19;;;16.05;76.47
57990;BME280;58373;51.824;5.564;2022-10-16T11:14:23;101494.75;;;16.18;76.72
57990;BME280;58373;51.824;5.564;2022-10-16T11:17:04;101498.56;;;16.24;76.52
57990;BME280;58373;51.824;5.564;2022-10-16T11:22:19;101506.69;;;16.21;76.20
57990;BME280;58373;51.824;5.564;2022-10-16T11:25:01;101504.00;;;16.40;76.25
57990;BME280;58373;51.824;5.564;2022-10-16T11:27:39;101500.69;;;16.38;75.18
57990;BME280;58373;51.824;5.564;2022-10-16T11:30:19;101499.81;;;16.48;76.20
57990;BME280;58373;51.824;5.564;2022-10-16T11:35:46;101487.72;;;16.46;73.17
57990;BME280;58373;51.824;5.564;2022-10-16T11:41:34;101500.91;;;16.72;72.98
57990;BME280;58373;51.824;5.564;2022-10-16T11:44:16;101508.81;;;16.63;73.01
57990;BME280;58373;51.824;5.564;2022-10-16T11:46:51;101505.25;;;16.64;71.76
57990;BME280;58373;51.824;5.564;2022-10-16T11:49:21;101508.25;;;16.69;71.68
57990;BME280;58373;51.824;5.564;2022-10-16T11:51:57;101508.53;;;16.66;70.58
57990;BME280;58373;51.824;5.564;2022-10-16T11:54:41;101518.16;;;16.75;71.03
57990;BME280;58373;51.824;5.564;2022-10-16T11:57:40;101508.50;;;16.76;71.41
57990;BME280;58373;51.824;5.564;2022-10-16T12:00:19;101521.78;;;16.64;72.25
57990;BME280;58373;51.824;5.564;2022-10-16T12:07:55;101517.25;;;16.84;71.16
57990;BME280;58373;51.824;5.564;2022-10-16T12:10:28;101528.31;;;16.78;71.05
57990;BME280;58373;51.824;5.564;2022-10-16T12:12:56;101529.97;;;16.79;71.61
57990;BME280;58373;51.824;5.564;2022-10-16T12:15:28;101527.72;;;16.84;70.88
57990;BME280;58373;51.824;5.564;2022-10-16T12:17:55;101531.03;;;16.86;70.87
57990;BME280;58373;51.824;5.564;2022-10-16T12:20:29;101534.22;;;16.80;68.57
57990;BME280;58373;51.824;5.564;2022-10-16T12:25:29;101515.88;;;16.80;71.26
57990;BME280;58373;51.824;5.564;2022-10-16T12:28:15;101515.31;;;16.86;69.82
57990;BME280;58373;51.824;5.564;2022-10-16T12:30:43;101520.41;;;17.06;70.37
57990;BME280;58373;51.824;5.564;2022-10-16T12:35:45;101525.31;;;17.09;69.35
57990;BME280;58373;51.824;5.564;2022-10-16T12:38:25;101528.47;;;16.94;71.30
57990;BME280;58373;51.824;5.564;2022-10-16T12:41:00;101537.91;;;16.87;70.91
57990;BME280;58373;51.824;5.564;2022-10-16T12:43:27;101545.94;;;17.04;71.06
57990;BME280;58373;51.824;5.564;2022-10-16T12:46:05;101545.56;;;16.98;70.74
57990;BME280;58373;51.824;5.564;2022-10-16T12:48:45;101530.44;;;16.92;71.09
57990;BME280;58373;51.824;5.564;2022-10-16T12:54:15;101540.53;;;17.05;69.02
57990;BME280;58373;51.824;5.564;2022-10-16T13:00:21;101528.25;;;17.06;68.20
57990;BME280;58373;51.824;5.564;2022-10-16T13:06:07;101548.69;;;17.20;68.11
57990;BME280;58373;51.824;5.564;2022-10-16T13:14:24;101530.81;;;17.15;67.78
57990;BME280;58373;51.824;5.564;2022-10-16T13:17:25;101540.16;;;17.18;67.42
57990;BME280;58373;51.824;5.564;2022-10-16T13:20:13;101540.91;;;17.28;67.29
57990;BME280;58373;51.824;5.564;2022-10-16T13:28:28;101540.16;;;17.18;66.73
57990;BME280;58373;51.824;5.564;2022-10-16T13:30:57;101544.75;;;17.16;65.96
57990;BME280;58373;51.824;5.564;2022-10-16T13:35:56;101556.56;;;17.20;67.80
57990;BME280;58373;51.824;5.564;2022-10-16T13:38:29;101553.88;;;17.12;66.80
57990;BME280;58373;51.824;5.564;2022-10-16T13:41:15;101547.16;;;17.09;68.18
57990;BME280;58373;51.824;5.564;2022-10-16T13:43:44;101543.75;;;16.81;66.75
57990;BME280;58373;51.824;5.564;2022-10-16T13:46:16;101555.28;;;16.88;66.93
57990;BME280;58373;51.824;5.564;2022-10-16T13:48:42;101550.91;;;16.79;67.24
57990;BME280;58373;51.824;5.564;2022-10-16T13:51:18;101558.28;;;16.93;68.79
57990;BME280;58373;51.824;5.564;2022-10-16T13:53:44;101553.34;;;16.90;67.46
57990;BME280;58373;51.824;5.564;2022-10-16T13:56:18;101558.94;;;16.95;68.33
57990;BME280;58373;51.824;5.564;2022-10-16T13:58:44;101544.56;;;16.82;66.85
57990;BME280;58373;51.824;5.564;2022-10-16T14:01:23;101546.81;;;16.94;69.34
57990;BME280;58373;51.824;5.564;2022-10-16T14:03:50;101557.53;;;16.83;68.85
57990;BME280;58373;51.824;5.564;2022-10-16T14:06:19;101558.13;;;16.77;68.49
57990;BME280;58373;51.824;5.564;2022-10-16T14:08:53;101562.75;;;16.83;68.35
57990;BME280;58373;51.824;5.564;2022-10-16T14:11:23;101549.00;;;16.81;67.15
57990;BME280;58373;51.824;5.564;2022-10-16T14:13:49;101558.50;;;16.82;67.07
57990;BME280;58373;51.824;5.564;2022-10-16T14:16:42;101561.94;;;16.83;68.35
57990;BME280;58373;51.824;5.564;2022-10-16T14:19:19;101557.25;;;16.86;68.75
57990;BME280;58373;51.824;5.564;2022-10-16T14:21:45;101549.28;;;16.78;69.00
57990;BME280;58373;51.824;5.564;2022-10-16T14:24:12;101553.16;;;16.74;70.06